createdAt,value
2023-02-15T00:01:04.193Z,100547.41
2023-02-15T00:05:03.914Z,100559.28
2023-02-15T00:08:11.771Z,100557.06
2023-02-15T00:11:23.567Z,100560.41
2023-02-15T00:14:41.972Z,100546.69
2023-02-15T00:18:02.755Z,100562.63
2023-02-15T00:21:03.549Z,100553.94
2023-02-15T00:24:10.641Z,100557.56
2023-02-15T00:27:20.120Z,100551.38
2023-02-15T00:34:35.020Z,100569.50
2023-02-15T00:37:52.168Z,100567.84
2023-02-15T00:44:23.497Z,100553.63
2023-02-15T00:47:22.246Z,100551.66
2023-02-15T00:50:24.043Z,100542.69
2023-02-15T00:53:35.211Z,100552.31
2023-02-15T00:56:39.920Z,100555.59
2023-02-15T00:59:52.680Z,100545.28
2023-02-15T01:06:35.850Z,100540.09
2023-02-15T01:13:12.841Z,100538.91
2023-02-15T01:16:24.676Z,100532.03
2023-02-15T01:23:15.378Z,100550.50
2023-02-15T01:26:56.080Z,100552.84
2023-02-15T01:30:04.083Z,100564.72
2023-02-15T01:33:13.948Z,100556.81
2023-02-15T01:36:51.271Z,100565.53
2023-02-15T01:40:02.482Z,100573.94
2023-02-15T01:43:10.433Z,100572.91
2023-02-15T01:46:30.866Z,100574.66
2023-02-15T01:49:44.804Z,100575.41
2023-02-15T01:52:55.642Z,100581.59
2023-02-15T01:56:19.892Z,100584.50
2023-02-15T01:59:34.358Z,100586.59
2023-02-15T02:02:43.847Z,100590.53
2023-02-15T02:06:19.690Z,100589.25
2023-02-15T02:09:39.985Z,100581.91
2023-02-15T02:12:48.569Z,100568.56
2023-02-15T02:16:04.337Z,100573.34
2023-02-15T02:19:42.421Z,100559.91
2023-02-15T02:23:36.116Z,100558.16
2023-02-15T02:27:23.551Z,100550.41
2023-02-15T02:30:50.521Z,100549.00
2023-02-15T02:34:19.818Z,100546.13
2023-02-15T02:38:16.824Z,100554.16
2023-02-15T02:41:35.533Z,100559.00
2023-02-15T02:44:48.177Z,100567.78
2023-02-15T02:48:10.447Z,100568.50
2023-02-15T02:51:19.678Z,100574.56
2023-02-15T02:54:51.985Z,100575.94
2023-02-15T02:58:11.724Z,100569.81
2023-02-15T03:01:39.660Z,100555.47
2023-02-15T03:04:52.571Z,100551.19
2023-02-15T03:08:32.010Z,100551.13
2023-02-15T03:12:03.898Z,100543.44
2023-02-15T03:15:19.571Z,100530.16
2023-02-15T03:18:30.935Z,100527.47
2023-02-15T03:22:02.818Z,100523.09
2023-02-15T03:25:30.283Z,100517.81
2023-02-15T03:29:00.488Z,100503.34
2023-02-15T03:32:05.137Z,100499.28
2023-02-15T03:35:11.897Z,100500.88
2023-02-15T03:44:03.480Z,100485.59
2023-02-15T03:47:55.964Z,100469.81
2023-02-15T03:51:38.083Z,100464.56
2023-02-15T03:54:52.728Z,100457.59
2023-02-15T03:58:16.742Z,100459.16
2023-02-15T04:01:52.493Z,100461.69
2023-02-15T04:05:12.341Z,100463.94
2023-02-15T04:08:19.189Z,100470.25
2023-02-15T04:11:24.484Z,100475.22
2023-02-15T04:14:48.328Z,100470.63
2023-02-15T04:17:56.566Z,100443.84
2023-02-15T04:21:23.588Z,100451.19
2023-02-15T04:25:11.223Z,100440.50
2023-02-15T04:28:19.914Z,100424.81
2023-02-15T04:31:30.832Z,100419.81
2023-02-15T04:34:40.816Z,100458.22
2023-02-15T04:37:52.075Z,100469.41
2023-02-15T04:41:14.337Z,100488.06
2023-02-15T04:44:22.496Z,100480.59
2023-02-15T04:55:20.306Z,100476.94
2023-02-15T04:58:34.297Z,100461.31
2023-02-15T05:01:51.953Z,100432.00
2023-02-15T05:04:51.789Z,100433.19
2023-02-15T05:12:20.670Z,100456.03
2023-02-15T05:16:16.808Z,100448.94
2023-02-15T05:19:40.377Z,100441.78
2023-02-15T05:22:51.903Z,100435.56
2023-02-15T05:26:14.358Z,100439.59
2023-02-15T05:29:48.117Z,100422.72
2023-02-15T05:32:55.745Z,100425.50
2023-02-15T05:36:12.514Z,100421.44
2023-02-15T05:39:16.462Z,100428.38
2023-02-15T05:42:19.740Z,100426.63
2023-02-15T05:45:32.712Z,100429.59
2023-02-15T05:49:08.354Z,100427.69
2023-02-15T05:52:24.646Z,100417.72
2023-02-15T05:55:25.105Z,100416.63
2023-02-15T05:58:34.984Z,100417.00
2023-02-15T06:01:39.789Z,100392.81
2023-02-15T06:04:44.340Z,100380.16
2023-02-15T06:07:52.446Z,100392.50
2023-02-15T06:11:24.306Z,100386.03
2023-02-15T06:14:30.801Z,100394.00
2023-02-15T06:17:39.473Z,100399.56
2023-02-15T06:21:11.757Z,100397.88
2023-02-15T06:24:23.454Z,100392.94
2023-02-15T06:27:36.104Z,100391.28
2023-02-15T06:30:42.727Z,100389.69
2023-02-15T06:34:16.233Z,100380.66
2023-02-15T06:37:12.260Z,100364.13
2023-02-15T06:40:20.080Z,100352.50
2023-02-15T06:43:34.917Z,100354.47
2023-02-15T06:46:40.177Z,100377.84
2023-02-15T06:49:40.569Z,100379.69
2023-02-15T06:52:39.680Z,100393.56
2023-02-15T06:55:44.807Z,100405.09
2023-02-15T06:59:00.136Z,100395.56
2023-02-15T07:02:08.563Z,100397.56
2023-02-15T07:05:24.808Z,100372.78
2023-02-15T07:08:34.497Z,100379.19
2023-02-15T07:12:00.705Z,100354.00
2023-02-15T07:15:09.045Z,100352.63
2023-02-15T07:18:19.901Z,100365.66
2023-02-15T07:21:23.679Z,100386.13
2023-02-15T07:24:32.052Z,100384.06
2023-02-15T07:27:40.225Z,100379.72
2023-02-15T07:31:12.337Z,100392.44
2023-02-15T07:34:24.306Z,100375.03
2023-02-15T07:37:34.194Z,100387.78
2023-02-15T07:40:40.224Z,100377.84
2023-02-15T07:43:54.455Z,100383.09
2023-02-15T07:47:03.287Z,100396.31
2023-02-15T07:50:34.644Z,100375.72
2023-02-15T07:53:39.889Z,100371.94
2023-02-15T07:57:26.729Z,100364.78
2023-02-15T08:00:16.153Z,100373.03
2023-02-15T08:03:27.128Z,100357.03
2023-02-15T08:06:40.181Z,100343.81
2023-02-15T08:14:17.104Z,100288.28
2023-02-15T08:21:52.750Z,100248.38
2023-02-15T08:25:22.262Z,100251.28
2023-02-15T08:28:26.767Z,100242.09
2023-02-15T08:31:40.561Z,100271.66
2023-02-15T08:34:52.059Z,100269.59
2023-02-15T08:38:03.848Z,100282.09
2023-02-15T08:41:16.038Z,100279.44
2023-02-15T08:44:24.566Z,100256.00
2023-02-15T08:47:38.149Z,100252.72
2023-02-15T08:51:04.601Z,100256.16
2023-02-15T08:54:04.148Z,100260.56
2023-02-15T08:57:10.880Z,100260.34
2023-02-15T09:00:20.721Z,100266.97
2023-02-15T09:03:31.354Z,100268.44
2023-02-15T09:06:36.741Z,100246.50
2023-02-15T09:09:40.063Z,100266.56
2023-02-15T09:12:48.154Z,100292.03
2023-02-15T09:15:52.118Z,100261.19
2023-02-15T09:19:07.213Z,100278.78
2023-02-15T09:22:11.967Z,100292.66
2023-02-15T09:25:23.563Z,100281.69
2023-02-15T09:28:30.945Z,100267.38
2023-02-15T09:31:44.456Z,100274.00
2023-02-15T09:34:59.820Z,100280.59
2023-02-15T09:38:03.984Z,100346.69
2023-02-15T09:41:35.993Z,100398.75
2023-02-15T09:45:00.575Z,100395.44
2023-02-15T09:48:39.803Z,100411.66
2023-02-15T09:52:11.796Z,100416.41
2023-02-15T09:55:30.391Z,100417.44
2023-02-15T09:58:42.637Z,100406.91
2023-02-15T10:02:24.071Z,100413.34
2023-02-15T10:06:05.118Z,100378.28
2023-02-15T10:09:52.059Z,100388.22
2023-02-15T10:13:52.086Z,100400.41
2023-02-15T10:17:22.658Z,100383.66
2023-02-15T10:20:53.241Z,100374.66
2023-02-15T10:24:11.779Z,100350.84
2023-02-15T10:27:28.657Z,100344.00
2023-02-15T10:31:03.859Z,100348.16
2023-02-15T10:34:19.852Z,100311.53
2023-02-15T10:37:31.957Z,100322.19
2023-02-15T10:41:16.607Z,100335.72
2023-02-15T10:44:44.333Z,100345.22
2023-02-15T10:48:09.186Z,100355.59
2023-02-15T10:51:24.369Z,100337.13
2023-02-15T10:54:43.817Z,100344.75
2023-02-15T10:58:19.679Z,100319.03
2023-02-15T11:01:28.559Z,100292.09
2023-02-15T11:05:04.009Z,100289.03
2023-02-15T11:08:18.083Z,100287.16
2023-02-15T11:11:40.289Z,100284.66
2023-02-15T11:15:09.063Z,100298.94
2023-02-15T11:18:36.611Z,100283.84
2023-02-15T11:22:12.297Z,100284.69
2023-02-15T11:25:48.428Z,100262.78
2023-02-15T11:28:56.751Z,100255.56
2023-02-15T11:32:11.981Z,100262.97
2023-02-15T11:35:51.981Z,100272.09
2023-02-15T11:39:41.194Z,100270.72
2023-02-15T11:42:48.971Z,100274.84
2023-02-15T11:45:52.194Z,100262.66
2023-02-15T11:49:04.061Z,100255.19
2023-02-15T11:52:12.095Z,100271.53
2023-02-15T11:55:44.042Z,100280.22
2023-02-15T11:59:19.772Z,100295.34
2023-02-15T12:02:40.337Z,100289.31
2023-02-15T12:06:12.224Z,100255.81
2023-02-15T12:09:17.275Z,100272.56
2023-02-15T12:12:52.247Z,100259.75
2023-02-15T12:16:04.333Z,100251.66
2023-02-15T12:19:19.180Z,100245.47
2023-02-15T12:22:56.961Z,100251.03
2023-02-15T12:26:40.895Z,100245.47
2023-02-15T12:34:40.466Z,100282.31
2023-02-15T12:38:00.722Z,100279.66
2023-02-15T12:41:41.187Z,100279.81
2023-02-15T12:45:37.077Z,100277.56
2023-02-15T12:48:52.899Z,100285.22
2023-02-15T12:52:08.814Z,100288.09
2023-02-15T12:55:47.322Z,100274.84
2023-02-15T12:58:56.789Z,100267.75
2023-02-15T13:02:06.373Z,100282.44
2023-02-15T13:05:31.805Z,100279.53
2023-02-15T13:08:48.552Z,100275.03
2023-02-15T13:11:59.538Z,100280.16
2023-02-15T13:15:12.703Z,100275.47
2023-02-15T13:18:49.403Z,100281.03
2023-02-15T13:22:12.109Z,100280.66
2023-02-15T13:25:41.302Z,100262.00
2023-02-15T13:32:56.757Z,100253.09
2023-02-15T13:36:23.048Z,100258.06
2023-02-15T13:39:38.895Z,100249.63
2023-02-15T13:42:48.824Z,100249.41
2023-02-15T13:46:19.694Z,100246.28
2023-02-15T13:50:38.392Z,100244.38
2023-02-15T13:53:58.380Z,100243.16
2023-02-15T13:57:40.777Z,100238.47
2023-02-15T14:01:40.495Z,100230.72
2023-02-15T14:10:13.291Z,100209.00
2023-02-15T14:15:01.282Z,100215.72
2023-02-15T14:19:01.325Z,100202.25
2023-02-15T14:22:16.916Z,100196.50
2023-02-15T14:26:00.340Z,100208.56
2023-02-15T14:29:31.953Z,100216.44
2023-02-15T14:33:08.580Z,100206.53
2023-02-15T14:36:35.903Z,100201.34
2023-02-15T14:39:50.788Z,100205.63
2023-02-15T14:43:39.404Z,100200.22
2023-02-15T14:46:52.966Z,100197.28
2023-02-15T14:50:22.854Z,100196.13
2023-02-15T14:54:07.718Z,100196.34
2023-02-15T14:57:20.137Z,100197.34
2023-02-15T15:00:56.922Z,100193.19
2023-02-15T15:04:11.826Z,100198.84
2023-02-15T15:07:36.853Z,100172.47
2023-02-15T15:11:04.436Z,100186.47
2023-02-15T15:14:16.415Z,100186.81
2023-02-15T15:17:20.933Z,100182.72
2023-02-15T15:21:08.614Z,100178.28
2023-02-15T15:25:00.208Z,100181.75
2023-02-15T15:28:16.184Z,100168.13
2023-02-15T15:31:32.036Z,100153.22
2023-02-15T15:35:19.647Z,100164.53
2023-02-15T15:38:56.159Z,100154.38
2023-02-15T15:42:16.755Z,100146.84
2023-02-15T15:45:57.158Z,100138.22
2023-02-15T15:49:33.709Z,100135.16
2023-02-15T15:52:40.525Z,100132.91
2023-02-15T15:55:48.433Z,100124.22
2023-02-15T15:59:12.170Z,100117.50
2023-02-15T16:02:26.994Z,100103.75
2023-02-15T16:05:31.711Z,100091.69
2023-02-15T16:08:48.616Z,100088.41
2023-02-15T16:11:48.534Z,100073.81
2023-02-15T16:15:40.047Z,100067.78
2023-02-15T16:18:51.548Z,100064.78
2023-02-15T16:22:04.182Z,100053.66
2023-02-15T16:25:20.434Z,100038.56
2023-02-15T16:28:32.216Z,100040.91
2023-02-15T16:31:47.314Z,100041.63
2023-02-15T16:34:52.712Z,100039.34
2023-02-15T16:38:04.178Z,100035.06
2023-02-15T16:41:12.965Z,100029.09
2023-02-15T16:44:32.991Z,100031.94
2023-02-15T16:47:50.868Z,100011.34
2023-02-15T16:51:04.766Z,100006.31
2023-02-15T16:54:16.023Z,100004.00
2023-02-15T16:57:41.361Z,99990.94
2023-02-15T17:00:50.606Z,99993.38
2023-02-15T17:04:04.108Z,99981.94
2023-02-15T17:07:39.227Z,99976.28
2023-02-15T17:11:08.890Z,99965.28
2023-02-15T17:14:22.603Z,99944.50
2023-02-15T17:17:54.720Z,99923.81
2023-02-15T17:21:01.396Z,99925.13
2023-02-15T17:24:17.153Z,99920.47
2023-02-15T17:27:36.515Z,99907.94
2023-02-15T17:30:56.302Z,99909.72
2023-02-15T17:34:48.177Z,99896.81
2023-02-15T17:37:56.538Z,99898.44
2023-02-15T17:41:02.821Z,99885.91
2023-02-15T17:44:08.409Z,99888.84
2023-02-15T17:47:11.092Z,99902.19
2023-02-15T17:50:34.827Z,99894.59
2023-02-15T17:53:44.432Z,99887.00
2023-02-15T17:56:58.242Z,99874.56
2023-02-15T18:00:48.569Z,99880.81
2023-02-15T18:04:30.925Z,99859.72
2023-02-15T18:07:55.313Z,99867.41
2023-02-15T18:11:22.888Z,99853.28
2023-02-15T18:14:51.010Z,99852.50
2023-02-15T18:18:02.790Z,99842.66
2023-02-15T18:21:09.394Z,99832.56
2023-02-15T18:24:34.622Z,99828.00
2023-02-15T18:27:56.766Z,99836.19
2023-02-15T18:31:09.511Z,99828.03
2023-02-15T18:34:46.630Z,99820.91
2023-02-15T18:38:04.082Z,99817.06
2023-02-15T18:41:10.730Z,99813.00
2023-02-15T18:44:31.906Z,99802.94
2023-02-15T18:47:48.017Z,99799.94
2023-02-15T18:51:01.657Z,99802.13
2023-02-15T18:54:21.424Z,99793.44
2023-02-15T18:57:32.706Z,99782.81
2023-02-15T19:01:15.418Z,99775.94
2023-02-15T19:04:32.384Z,99786.06
2023-02-15T19:08:20.512Z,99781.09
2023-02-15T19:11:59.006Z,99777.44
2023-02-15T19:15:04.438Z,99778.88
2023-02-15T19:18:46.852Z,99776.41
2023-02-15T19:21:52.302Z,99765.25
2023-02-15T19:25:11.700Z,99757.56
2023-02-15T19:28:54.625Z,99769.88
2023-02-15T19:32:04.986Z,99778.44
2023-02-15T19:35:37.155Z,99783.72
2023-02-15T19:39:43.034Z,99783.31
2023-02-15T19:46:33.645Z,99781.72
2023-02-15T19:49:47.279Z,99785.41
2023-02-15T19:52:53.460Z,99779.47
2023-02-15T19:56:03.013Z,99775.41
2023-02-15T19:59:52.605Z,99771.72
2023-02-15T20:03:14.808Z,99769.31
2023-02-15T20:06:32.369Z,99760.94
2023-02-15T20:10:02.350Z,99765.03
2023-02-15T20:13:17.457Z,99764.72
2023-02-15T20:16:55.997Z,99760.31
2023-02-15T20:20:02.879Z,99766.34
2023-02-15T20:23:13.044Z,99766.66
2023-02-15T20:26:32.351Z,99762.19
2023-02-15T20:29:36.765Z,99777.81
2023-02-15T20:32:51.445Z,99773.03
2023-02-15T20:36:02.735Z,99773.28
2023-02-15T20:39:17.464Z,99769.56
2023-02-15T20:42:28.452Z,99772.88
2023-02-15T20:45:56.173Z,99772.44
2023-02-15T20:49:03.881Z,99761.00
2023-02-15T20:52:12.676Z,99768.81
2023-02-15T20:55:32.557Z,99773.56
2023-02-15T20:58:50.636Z,99779.31
2023-02-15T21:02:03.098Z,99780.13
2023-02-15T21:05:16.585Z,99780.50
2023-02-15T21:08:52.881Z,99784.19
2023-02-15T21:12:08.480Z,99788.78
2023-02-15T21:15:44.929Z,99791.59
2023-02-15T21:18:53.104Z,99783.91
2023-02-15T21:22:03.857Z,99785.00
2023-02-15T21:25:09.176Z,99793.81
2023-02-15T21:28:15.987Z,99793.56
2023-02-15T21:31:44.217Z,99799.69
2023-02-15T21:34:48.101Z,99790.06
2023-02-15T21:37:52.446Z,99802.03
2023-02-15T21:41:32.536Z,99804.03
2023-02-15T21:44:52.428Z,99809.78
2023-02-15T21:48:04.551Z,99815.84
2023-02-15T21:51:28.654Z,99817.56
2023-02-15T21:55:03.114Z,99816.94
2023-02-15T21:58:35.529Z,99822.94
2023-02-15T22:02:04.068Z,99823.00
2023-02-15T22:05:08.019Z,99816.31
2023-02-15T22:08:12.494Z,99824.03
2023-02-15T22:11:15.828Z,99819.16
2023-02-15T22:14:19.705Z,99823.88
2023-02-15T22:17:42.895Z,99829.19
2023-02-15T22:21:16.344Z,99822.56
2023-02-15T22:24:48.282Z,99820.56
2023-02-15T22:27:56.234Z,99829.63
2023-02-15T22:31:03.166Z,99842.19
2023-02-15T22:34:08.072Z,99838.16
2023-02-15T22:37:13.438Z,99843.03
2023-02-15T22:40:19.901Z,99846.34
2023-02-15T22:43:30.664Z,99849.81
2023-02-15T22:46:39.949Z,99841.00
2023-02-15T22:49:44.011Z,99851.94
2023-02-15T22:53:01.490Z,99851.66
2023-02-15T22:56:03.704Z,99848.81
2023-02-15T22:59:12.175Z,99867.72
2023-02-15T23:02:15.965Z,99863.38
2023-02-15T23:05:19.914Z,99857.94
2023-02-15T23:08:24.045Z,99859.59
2023-02-15T23:11:30.604Z,99860.66
2023-02-15T23:15:04.548Z,99878.38
2023-02-15T23:18:18.814Z,99879.75
2023-02-15T23:21:41.561Z,99880.28
2023-02-15T23:24:48.470Z,99883.00
2023-02-15T23:28:04.543Z,99882.16
2023-02-15T23:31:11.213Z,99893.38
2023-02-15T23:34:33.110Z,99887.91
2023-02-15T23:37:41.102Z,99888.09
2023-02-15T23:41:20.751Z,99896.56
2023-02-15T23:44:24.258Z,99896.56
2023-02-15T23:48:16.053Z,99909.13
2023-02-15T23:51:24.741Z,99912.66
2023-02-15T23:54:32.017Z,99908.00
2023-02-15T23:57:40.663Z,99913.78
